Time;durP1;ratioP1;P1;durP2;ratioP2;P2;SDS_P1;SDS_P2;PMS_P1;PMS_P2;Temp;Humidity;BMP_temperature;BMP_pressure;BME280_temperature;BME280_humidity;BME280_pressure;Samples;Min_cycle;Max_cycle;Signal;HPM_P1;HPM_P2
2022/06/08 00:00:49;;;;;;;1.17;0.22;;;16.60;99.90;;;;;;10259151;28;20043;-87
2022/06/08 00:05:51;;;;;;;1.50;0.30;;;16.50;99.90;;;;;;10277050;28;20047;-87
2022/06/08 00:10:53;;;;;;;2.20;0.35;;;16.50;99.90;;;;;;10297214;28;20051;-87
2022/06/08 00:15:55;;;;;;;1.48;0.25;;;16.40;99.90;;;;;;10279190;28;20118;-87
2022/06/08 00:20:57;;;;;;;0.70;0.30;;;16.30;99.90;;;;;;10287406;28;20138;-87
2022/06/08 00:25:59;;;;;;;3.10;0.50;;;16.20;99.90;;;;;;10284953;28;20055;-87
2022/06/08 00:31:01;;;;;;;5.38;0.50;;;16.10;99.90;;;;;;10246534;28;20062;-87
2022/06/08 00:36:04;;;;;;;1.13;0.40;;;16.10;99.90;;;;;;10279611;28;20108;-87
2022/06/08 00:41:37;;;;;;;1.83;0.40;;;16.00;99.90;;;;;;10262913;28;20493;-87
2022/06/08 00:46:39;;;;;;;0.95;0.45;;;16.00;99.90;;;;;;10276203;28;20054;-87
2022/06/08 00:51:44;;;;;;;4.10;0.60;;;15.90;99.90;;;;;;10257844;28;20043;-87
2022/06/08 00:56:51;;;;;;;0.73;0.30;;;15.80;99.90;;;;;;10291982;28;20048;-87
2022/06/08 01:01:53;;;;;;;4.80;0.40;;;15.80;99.90;;;;;;10280589;28;20054;-86
2022/06/08 01:06:58;;;;;;;2.38;0.50;;;15.70;99.90;;;;;;10268217;28;20059;-86
2022/06/08 01:12:09;;;;;;;3.00;0.70;;;15.70;99.90;;;;;;10275773;28;20055;-87
2022/06/08 01:17:18;;;;;;;2.72;0.80;;;15.70;99.90;;;;;;10261357;28;20062;-86
2022/06/08 01:22:21;;;;;;;4.50;0.90;;;15.60;99.90;;;;;;10268480;28;20067;-86
2022/06/08 01:27:26;;;;;;;6.47;0.70;;;15.60;99.90;;;;;;10270806;28;20062;-87
2022/06/08 01:32:57;;;;;;;4.07;0.85;;;15.50;99.90;;;;;;10297836;28;20038;-87
2022/06/08 01:43:47;;;;;;;1.20;0.77;;;15.50;99.90;;;;;;10260943;28;20416;-62
2022/06/08 01:49:33;;;;;;;2.53;1.15;;;15.40;99.90;;;;;;10246896;28;20055;-62
2022/06/08 01:54:53;;;;;;;2.33;1.02;;;15.50;99.90;;;;;;10264899;28;20051;-62
2022/06/08 02:00:22;;;;;;;2.60;1.13;;;15.50;99.90;;;;;;10263772;28;20641;-61
2022/06/08 02:05:45;;;;;;;3.53;1.20;;;15.50;99.90;;;;;;10268238;28;20046;-61
2022/06/08 02:10:57;;;;;;;5.90;1.17;;;15.50;99.90;;;;;;10273813;28;20043;-60
2022/06/08 02:16:07;;;;;;;1.73;1.00;;;15.50;99.90;;;;;;10270638;28;20086;-60
2022/06/08 02:21:20;;;;;;;4.30;1.02;;;15.50;99.90;;;;;;10254463;28;20062;-61
2022/06/08 02:27:00;;;;;;;5.28;0.90;;;15.30;99.90;;;;;;10269938;28;20105;-61
2022/06/08 02:37:46;;;;;;;7.13;1.15;;;15.20;99.90;;;;;;10208635;28;20054;-61
2022/06/08 02:43:05;;;;;;;7.18;1.55;;;15.30;99.90;;;;;;10308005;28;20093;-61
2022/06/08 02:48:10;;;;;;;1.65;0.93;;;15.20;99.90;;;;;;10310158;28;20128;-61
2022/06/08 02:53:18;;;;;;;4.22;1.20;;;15.20;99.90;;;;;;10311405;28;20452;-61
2022/06/08 02:58:30;;;;;;;2.60;1.20;;;15.30;99.90;;;;;;10310640;28;20054;-63
2022/06/08 03:03:39;;;;;;;4.47;1.20;;;15.30;99.90;;;;;;10309244;28;20481;-62
2022/06/08 03:08:53;;;;;;;4.07;1.30;;;15.20;99.90;;;;;;10310353;28;20046;-61
2022/06/08 03:13:58;;;;;;;8.48;1.83;;;15.30;99.90;;;;;;10309466;28;20441;-65
2022/06/08 03:19:00;;;;;;;2.72;1.05;;;15.20;99.90;;;;;;10309662;28;20046;-66
2022/06/08 03:24:02;;;;;;;2.38;1.35;;;15.20;99.90;;;;;;10312899;28;20042;-67
2022/06/08 03:29:04;;;;;;;3.85;1.40;;;15.20;99.90;;;;;;10307678;28;20481;-66
2022/06/08 03:34:06;;;;;;;2.33;1.20;;;15.20;99.90;;;;;;10294931;28;20480;-68
2022/06/08 03:39:08;;;;;;;4.55;1.30;;;15.10;99.90;;;;;;10309187;28;20042;-69
2022/06/08 03:44:10;;;;;;;1.75;1.02;;;15.20;99.90;;;;;;10310720;28;20053;-67
2022/06/08 03:49:12;;;;;;;1.95;0.90;;;15.10;99.90;;;;;;10310859;28;20042;-68
2022/06/08 03:54:17;;;;;;;4.97;1.50;;;15.10;99.90;;;;;;10313062;28;20050;-68
2022/06/08 03:59:19;;;;;;;5.07;1.60;;;15.20;99.90;;;;;;10286727;28;20057;-68
2022/06/08 04:04:21;;;;;;;12.65;1.83;;;15.20;99.90;;;;;;10307321;28;20046;-68
2022/06/08 04:09:23;;;;;;;1.45;1.10;;;15.30;99.90;;;;;;10308507;28;20047;-67
2022/06/08 04:14:25;;;;;;;5.18;1.95;;;15.40;99.90;;;;;;10309208;28;20043;-68
2022/06/08 04:19:28;;;;;;;2.90;1.15;;;15.50;99.90;;;;;;10309728;28;20061;-68
2022/06/08 04:24:30;;;;;;;4.63;1.25;;;15.50;99.90;;;;;;10306320;28;20046;-67
2022/06/08 04:29:37;;;;;;;2.10;1.10;;;15.60;99.90;;;;;;10306778;28;20050;-67
2022/06/08 04:34:41;;;;;;;4.38;1.58;;;15.50;99.90;;;;;;10308895;28;20061;-68
2022/06/08 04:39:43;;;;;;;4.03;1.65;;;15.40;99.90;;;;;;10308722;28;20046;-67
2022/06/08 04:44:49;;;;;;;6.45;2.28;;;15.50;99.90;;;;;;10305227;28;21166;-67
2022/06/08 04:49:50;;;;;;;5.60;2.35;;;15.40;99.90;;;;;;10302301;28;20057;-68
2022/06/08 04:54:52;;;;;;;3.45;1.65;;;15.30;99.90;;;;;;10303482;28;20450;-67
2022/06/08 04:59:54;;;;;;;4.10;1.70;;;15.30;99.90;;;;;;10286207;28;20500;-67
2022/06/08 05:04:58;;;;;;;3.55;1.48;;;15.30;99.90;;;;;;10301096;28;20149;-67
2022/06/08 05:10:00;;;;;;;2.30;1.45;;;15.40;99.90;;;;;;10287847;28;20045;-68
2022/06/08 05:15:07;;;;;;;6.80;1.80;;;15.40;99.90;;;;;;10289754;28;20054;-66
2022/06/08 05:20:10;;;;;;;3.00;1.40;;;15.70;99.90;;;;;;10306485;28;20050;-66
2022/06/08 05:25:15;;;;;;;5.88;1.35;;;15.80;99.90;;;;;;10305293;28;20137;-67
2022/06/08 05:30:17;;;;;;;1.80;1.10;;;15.70;99.90;;;;;;10284017;28;20050;-61
2022/06/08 05:35:20;;;;;;;1.83;1.10;;;15.80;99.90;;;;;;10288054;28;20101;-62
2022/06/08 05:40:23;;;;;;;6.80;1.98;;;15.80;99.90;;;;;;10291330;28;20046;-61
2022/06/08 05:45:27;;;;;;;6.05;1.30;;;15.90;99.90;;;;;;10261733;28;20058;-62
2022/06/08 05:50:29;;;;;;;5.88;1.45;;;16.00;99.90;;;;;;10259664;28;20079;-62
2022/06/08 05:55:32;;;;;;;6.32;2.05;;;16.20;99.90;;;;;;10252047;28;20058;-60
2022/06/08 06:00:38;;;;;;;3.80;1.65;;;16.30;99.90;;;;;;10270048;28;20051;-61
2022/06/08 06:05:40;;;;;;;2.40;1.50;;;16.30;99.90;;;;;;10266395;28;20050;-62
2022/06/08 06:10:44;;;;;;;7.70;1.88;;;16.40;99.90;;;;;;10265843;28;20046;-62
2022/06/08 06:15:46;;;;;;;3.67;1.25;;;16.60;99.90;;;;;;10271510;28;20054;-63
2022/06/08 06:20:50;;;;;;;5.07;1.30;;;16.60;99.90;;;;;;10267454;28;20574;-62
2022/06/08 06:25:52;;;;;;;2.88;1.27;;;16.30;99.90;;;;;;10262125;28;20058;-63
2022/06/08 06:30:54;;;;;;;3.90;1.30;;;16.30;99.90;;;;;;10275072;28;20058;-63
2022/06/08 06:35:56;;;;;;;6.68;1.67;;;16.40;99.90;;;;;;10264394;28;20109;-64
2022/06/08 06:40:57;;;;;;;2.72;1.25;;;16.50;99.90;;;;;;10288512;28;20109;-61
2022/06/08 06:45:59;;;;;;;7.55;1.77;;;16.50;99.90;;;;;;10305761;28;20050;-61
2022/06/08 06:51:03;;;;;;;4.43;1.30;;;16.70;99.90;;;;;;10307963;28;20054;-63
2022/06/08 06:56:06;;;;;;;9.32;1.70;;;16.90;99.90;;;;;;10310202;28;20057;-62
2022/06/08 07:01:10;;;;;;;4.13;1.52;;;17.00;99.90;;;;;;10312572;28;20061;-62
2022/06/08 07:06:12;;;;;;;5.90;1.55;;;17.20;99.90;;;;;;10297180;28;20061;-62
2022/06/08 07:16:34;;;;;;;4.63;1.20;;;17.70;99.90;;;;;;10309957;28;20571;-63
2022/06/08 07:21:36;;;;;;;5.30;1.27;;;17.90;99.90;;;;;;10308858;28;20120;-61
2022/06/08 07:26:38;;;;;;;4.05;1.20;;;18.10;99.90;;;;;;10307738;28;20046;-62
2022/06/08 07:31:41;;;;;;;4.93;1.02;;;18.40;99.90;;;;;;10313171;28;20085;-64
2022/06/08 07:36:44;;;;;;;5.22;0.80;;;18.70;99.90;;;;;;10309240;28;20050;-62
2022/06/08 07:41:48;;;;;;;6.95;1.00;;;18.80;99.90;;;;;;10311271;28;20050;-62
2022/06/08 07:46:50;;;;;;;2.10;1.20;;;18.70;99.90;;;;;;10305697;28;20062;-62
2022/06/08 07:51:54;;;;;;;3.25;0.70;;;18.90;99.90;;;;;;10306423;28;20113;-63
2022/06/08 07:56:57;;;;;;;4.28;1.00;;;19.10;99.90;;;;;;10311036;28;20050;-63
2022/06/08 08:02:00;;;;;;;1.50;0.57;;;19.10;99.90;;;;;;10293785;28;20047;-62
2022/06/08 08:07:03;;;;;;;4.22;0.73;;;19.20;99.90;;;;;;10310760;28;20468;-62
2022/06/08 08:12:05;;;;;;;2.05;0.82;;;19.20;99.90;;;;;;10307467;28;20046;-62
2022/06/08 08:17:08;;;;;;;2.90;0.77;;;19.40;99.90;;;;;;10309265;28;20489;-61
2022/06/08 08:22:10;;;;;;;3.45;0.90;;;19.60;99.90;;;;;;10307684;28;20042;-61
2022/06/08 08:27:12;;;;;;;7.95;1.10;;;19.70;99.90;;;;;;10310316;28;20096;-60
2022/06/08 08:32:14;;;;;;;5.10;0.63;;;19.80;99.90;;;;;;10310333;28;20050;-60
2022/06/08 08:37:16;;;;;;;2.92;0.60;;;19.90;99.90;;;;;;10305600;28;20101;-60
2022/06/08 08:42:21;;;;;;;6.07;0.88;;;20.00;99.90;;;;;;10307013;28;20058;-60
2022/06/08 08:47:45;;;;;;;4.97;0.70;;;20.50;99.90;;;;;;10307561;28;20080;-60
2022/06/08 08:53:08;;;;;;;5.50;0.60;;;20.40;99.90;;;;;;10307718;28;20057;-60
2022/06/08 08:58:16;;;;;;;2.55;0.55;;;20.60;99.90;;;;;;10304473;28;20057;-62
2022/06/08 09:03:30;;;;;;;4.40;0.70;;;20.50;99.90;;;;;;10310442;28;20147;-60
2022/06/08 09:08:32;;;;;;;2.65;0.50;;;20.50;99.90;;;;;;10308259;28;20138;-60
2022/06/08 09:13:50;;;;;;;0.47;0.40;;;20.90;99.90;;;;;;10305692;28;20050;-60
2022/06/08 09:18:53;;;;;;;5.45;0.40;;;21.30;99.90;;;;;;10305301;28;20100;-61
2022/06/08 09:23:58;;;;;;;0.65;0.50;;;21.60;99.30;;;;;;10278455;28;20065;-61
2022/06/08 09:29:08;;;;;;;4.45;0.98;;;21.70;98.60;;;;;;10308079;28;20050;-61
2022/06/08 09:34:23;;;;;;;4.25;0.63;;;21.70;97.60;;;;;;10300328;28;20124;-62
2022/06/08 09:39:25;;;;;;;2.53;0.30;;;21.50;96.00;;;;;;10305360;28;20082;-62
2022/06/08 09:44:36;;;;;;;1.17;0.28;;;22.00;96.90;;;;;;10306907;28;20054;-62
2022/06/08 09:55:15;;;;;;;2.92;0.30;;;22.20;92.70;;;;;;10302813;28;20054;-60
2022/06/08 10:00:31;;;;;;;4.15;0.30;;;22.10;92.40;;;;;;10304776;28;20050;-60
2022/06/08 10:06:00;;;;;;;4.35;0.30;;;22.00;91.80;;;;;;10305992;28;20046;-60
2022/06/08 10:16:45;;;;;;;1.63;0.40;;;22.10;91.70;;;;;;10305012;28;20054;-61
2022/06/08 10:21:49;;;;;;;1.42;0.40;;;22.30;91.70;;;;;;10303809;28;20085;-59
2022/06/08 10:27:12;;;;;;;9.10;0.57;;;22.30;90.90;;;;;;10307005;28;20051;-60
2022/06/08 10:32:23;;;;;;;1.95;0.30;;;22.20;90.80;;;;;;10312792;28;20054;-61
2022/06/08 10:37:34;;;;;;;4.40;0.60;;;22.20;91.70;;;;;;10294480;28;20057;-60
2022/06/08 10:42:41;;;;;;;1.77;0.40;;;22.30;91.00;;;;;;10310168;28;20085;-60
2022/06/08 10:48:25;;;;;;;1.10;0.20;;;21.90;86.80;;;;;;10309445;28;20089;-59
2022/06/08 10:59:16;;;;;;;1.25;0.30;;;21.50;89.60;;;;;;10307964;28;20125;-68
2022/06/08 11:04:40;;;;;;;1.88;0.43;;;21.30;90.20;;;;;;10308146;28;20109;-66
2022/06/08 11:09:57;;;;;;;0.90;0.20;;;21.30;90.50;;;;;;10309088;28;20042;-66
2022/06/08 11:15:15;;;;;;;1.92;0.20;;;21.30;91.00;;;;;;10309585;28;20038;-67
2022/06/08 11:20:35;;;;;;;2.78;0.30;;;21.60;90.40;;;;;;10309537;28;20046;-64
2022/06/08 11:25:50;;;;;;;2.50;0.20;;;21.90;89.70;;;;;;10308720;28;20082;-65
2022/06/08 11:30:54;;;;;;;3.65;0.30;;;22.20;86.90;;;;;;10290981;28;20104;-66
2022/06/08 11:36:23;;;;;;;0.77;0.20;;;22.60;81.10;;;;;;10292888;28;20453;-66
2022/06/08 11:41:32;;;;;;;4.25;0.30;;;22.60;80.60;;;;;;10265412;28;22534;-66
2022/06/08 11:46:38;;;;;;;1.30;0.17;;;22.50;79.10;;;;;;10311912;28;20058;-66
2022/06/08 11:51:41;;;;;;;1.73;0.20;;;22.30;79.90;;;;;;10306327;28;20062;-65
2022/06/08 11:56:52;;;;;;;1.40;0.20;;;22.10;80.60;;;;;;10310289;28;20158;-66
2022/06/08 12:01:59;;;;;;;1.58;0.30;;;22.00;79.20;;;;;;10312585;28;20061;-65
2022/06/08 12:07:01;;;;;;;3.95;0.28;;;21.80;78.80;;;;;;10311037;28;20073;-65
2022/06/08 12:12:13;;;;;;;1.45;0.20;;;21.70;80.80;;;;;;10308963;28;20054;-65
2022/06/08 12:17:15;;;;;;;5.35;0.30;;;21.70;81.10;;;;;;10293949;28;20145;-65
2022/06/08 12:22:26;;;;;;;4.22;0.30;;;21.60;82.10;;;;;;10308484;28;20066;-65
2022/06/08 12:27:40;;;;;;;2.63;0.20;;;21.60;81.90;;;;;;10307356;28;20054;-65
2022/06/08 12:33:01;;;;;;;4.55;0.30;;;21.60;82.50;;;;;;10306622;28;20058;-65
2022/06/08 12:38:18;;;;;;;5.82;0.30;;;21.50;83.70;;;;;;10311035;28;20046;-64
2022/06/08 12:43:20;;;;;;;0.30;0.10;;;21.70;83.80;;;;;;10307796;28;20053;-66
2022/06/08 12:48:27;;;;;;;1.70;1.00;;;21.60;83.40;;;;;;10054996;28;20292;-65
2022/06/08 12:53:29;;;;;;;3.55;0.30;;;21.60;84.60;;;;;;10174676;28;20046;-65
2022/06/08 12:58:31;;;;;;;2.42;0.30;;;21.60;84.80;;;;;;10306598;28;20106;-65
2022/06/08 13:03:33;;;;;;;3.22;0.30;;;21.40;83.80;;;;;;10307038;28;20400;-66
2022/06/08 13:08:34;;;;;;;0.73;0.15;;;21.50;85.10;;;;;;10309651;28;20073;-66
2022/06/08 13:13:36;;;;;;;1.60;0.38;;;21.40;85.10;;;;;;10306411;28;20587;-66
2022/06/08 13:18:38;;;;;;;3.58;0.20;;;21.40;85.60;;;;;;10282716;28;20492;-66
2022/06/08 13:23:41;;;;;;;4.38;0.20;;;21.40;86.10;;;;;;10304054;28;20038;-66
2022/06/08 13:28:49;;;;;;;4.35;0.40;;;21.30;85.70;;;;;;10306807;28;20046;-65
2022/06/08 13:34:05;;;;;;;4.93;0.20;;;21.20;85.80;;;;;;10302097;28;20153;-66
2022/06/08 13:39:14;;;;;;;2.85;0.20;;;21.10;84.50;;;;;;10303170;28;20046;-65
2022/06/08 13:44:26;;;;;;;2.22;0.20;;;20.90;83.00;;;;;;10307976;28;20208;-67
2022/06/08 13:49:30;;;;;;;2.30;0.20;;;20.90;83.40;;;;;;10299693;28;20057;-67
2022/06/08 13:54:39;;;;;;;0.47;0.10;;;21.00;83.50;;;;;;10299389;28;20058;-67
2022/06/08 13:59:43;;;;;;;2.60;0.20;;;20.80;85.70;;;;;;10306402;28;20046;-67
2022/06/08 14:04:47;;;;;;;1.35;0.22;;;20.50;92.60;;;;;;10314469;28;20050;-66
2022/06/08 14:15:18;;;;;;;4.78;0.25;;;20.10;94.80;;;;;;10312049;28;20050;-62
2022/06/08 14:20:36;;;;;;;1.65;0.20;;;20.00;95.20;;;;;;10313080;28;20050;-61
2022/06/08 14:25:38;;;;;;;1.40;0.20;;;19.90;99.10;;;;;;10314059;28;20042;-61
2022/06/08 14:30:46;;;;;;;0.67;0.27;;;19.90;99.90;;;;;;10313974;28;20523;-61
2022/06/08 14:35:50;;;;;;;1.73;0.20;;;19.90;98.30;;;;;;10311639;28;20481;-66
2022/06/08 14:41:12;;;;;;;3.10;0.20;;;20.00;99.00;;;;;;10308600;28;20042;-67
2022/06/08 14:46:16;;;;;;;3.88;0.40;;;19.90;99.30;;;;;;10311223;28;20492;-68
2022/06/08 14:51:20;;;;;;;3.00;0.20;;;19.70;99.80;;;;;;10309007;28;20051;-68
2022/06/08 14:56:24;;;;;;;1.58;0.20;;;19.60;99.90;;;;;;10310161;28;20104;-67
2022/06/08 15:01:29;;;;;;;5.72;0.50;;;19.30;99.90;;;;;;10308965;28;20066;-67
2022/06/08 15:06:31;;;;;;;5.60;0.30;;;18.90;99.90;;;;;;10312911;28;20535;-66
2022/06/08 15:16:55;;;;;;;2.90;0.30;;;18.20;99.90;;;;;;10305692;28;20113;-68
2022/06/08 15:21:58;;;;;;;1.55;0.30;;;17.90;99.90;;;;;;10309638;28;20779;-69
2022/06/08 15:27:05;;;;;;;4.00;0.40;;;17.80;99.90;;;;;;10311791;28;20050;-69
2022/06/08 15:32:13;;;;;;;3.72;0.30;;;17.60;99.90;;;;;;10305459;28;20054;-70
2022/06/08 15:37:39;;;;;;;3.47;0.70;;;17.60;99.90;;;;;;10305529;28;20058;-71
2022/06/08 15:42:41;;;;;;;4.10;0.40;;;17.50;99.90;;;;;;10304975;28;20397;-71
2022/06/08 15:47:48;;;;;;;4.47;0.52;;;17.60;99.90;;;;;;10307290;28;20444;-70
2022/06/08 15:52:52;;;;;;;1.77;0.50;;;17.60;99.90;;;;;;10309475;28;20061;-70
2022/06/08 15:58:00;;;;;;;3.53;0.73;;;17.50;99.90;;;;;;10305224;28;20062;-67
2022/06/08 16:03:04;;;;;;;5.03;0.77;;;17.20;99.90;;;;;;10305464;28;20062;-67
2022/06/08 16:08:07;;;;;;;3.22;0.70;;;16.80;99.90;;;;;;10308997;28;20054;-68
2022/06/08 16:13:12;;;;;;;4.68;1.05;;;16.60;99.90;;;;;;10309419;28;20075;-66
2022/06/08 16:18:14;;;;;;;4.60;0.93;;;16.60;99.90;;;;;;10306634;28;20089;-66
2022/06/08 16:23:16;;;;;;;9.65;0.70;;;16.40;99.90;;;;;;10304499;28;20500;-67
2022/06/08 16:28:19;;;;;;;7.68;0.93;;;16.40;99.90;;;;;;10303911;28;20058;-69
2022/06/08 16:33:20;;;;;;;4.22;0.63;;;16.40;99.90;;;;;;10307793;28;20759;-69
2022/06/08 16:38:24;;;;;;;1.52;0.40;;;16.30;99.90;;;;;;10307084;28;20050;-69
2022/06/08 16:43:26;;;;;;;2.90;1.08;;;16.30;99.90;;;;;;10307597;28;20273;-68
2022/06/08 16:48:28;;;;;;;3.67;0.80;;;16.30;99.90;;;;;;10306822;28;20605;-68
2022/06/08 16:53:30;;;;;;;5.82;0.82;;;16.30;99.90;;;;;;10307620;28;20456;-68
2022/06/08 17:03:57;;;;;;;6.03;0.60;;;16.30;99.90;;;;;;10266156;28;20058;-69
2022/06/08 17:08:59;;;;;;;5.15;0.93;;;16.20;99.90;;;;;;10302809;28;20481;-68
2022/06/08 17:14:01;;;;;;;1.70;0.50;;;16.40;99.90;;;;;;10304640;28;20493;-69
2022/06/08 17:19:02;;;;;;;4.25;0.80;;;16.20;99.90;;;;;;10302608;28;20050;-69
2022/06/08 17:24:05;;;;;;;1.92;0.68;;;16.20;99.90;;;;;;10296998;28;20501;-68
2022/06/08 17:29:09;;;;;;;1.42;0.75;;;16.20;99.90;;;;;;10285837;28;20123;-63
2022/06/08 17:34:10;;;;;;;5.55;0.70;;;16.30;99.90;;;;;;10304013;28;20116;-65
2022/06/08 17:39:13;;;;;;;3.30;0.50;;;16.20;99.90;;;;;;10291572;28;20049;-66
2022/06/08 17:44:14;;;;;;;1.30;0.65;;;16.10;99.90;;;;;;10283412;28;20046;-65
2022/06/08 17:49:16;;;;;;;2.25;0.55;;;16.10;99.90;;;;;;10283523;28;20049;-65
2022/06/08 17:54:18;;;;;;;7.70;0.68;;;16.00;99.90;;;;;;10302223;28;20468;-65
2022/06/08 17:59:19;;;;;;;5.53;0.77;;;16.00;99.90;;;;;;10303431;28;20046;-65
2022/06/08 18:04:22;;;;;;;5.53;0.40;;;16.00;99.90;;;;;;10307303;28;20043;-64
2022/06/08 18:09:24;;;;;;;1.55;0.50;;;16.00;99.90;;;;;;10299348;28;20050;-66
2022/06/08 18:14:32;;;;;;;3.17;0.60;;;15.90;99.90;;;;;;10303630;28;20059;-65
2022/06/08 18:19:36;;;;;;;3.78;0.70;;;16.00;99.90;;;;;;10300592;28;20141;-65
2022/06/08 18:24:38;;;;;;;3.28;0.60;;;15.90;99.90;;;;;;10306889;28;20058;-65
2022/06/08 18:29:42;;;;;;;3.67;0.65;;;15.90;99.90;;;;;;10304302;28;20105;-64
2022/06/08 18:34:44;;;;;;;1.98;0.55;;;15.90;99.90;;;;;;10307654;28;20054;-64
2022/06/08 18:39:47;;;;;;;3.30;0.60;;;16.00;99.90;;;;;;10303886;28;20126;-65
2022/06/08 18:44:49;;;;;;;4.28;1.10;;;15.90;99.90;;;;;;10309344;28;20050;-65
2022/06/08 18:49:51;;;;;;;4.20;0.80;;;16.00;99.90;;;;;;10315230;28;20077;-66
2022/06/08 18:54:53;;;;;;;6.65;0.73;;;16.00;99.90;;;;;;10313585;28;20125;-65
2022/06/08 18:59:57;;;;;;;2.58;0.68;;;16.00;99.90;;;;;;10311942;28;20192;-65
2022/06/08 19:04:59;;;;;;;8.27;0.95;;;15.90;99.90;;;;;;10297450;28;20053;-65
2022/06/08 19:10:00;;;;;;;1.80;0.60;;;16.00;99.90;;;;;;10313025;28;20061;-63
2022/06/08 19:15:03;;;;;;;3.47;0.80;;;16.00;99.90;;;;;;10315436;28;20058;-65
2022/06/08 19:25:27;;;;;;;3.92;0.60;;;16.00;99.90;;;;;;10311736;28;20062;-66
2022/06/08 19:30:41;;;;;;;1.60;0.75;;;16.00;99.90;;;;;;10312858;28;20058;-65
2022/06/08 19:35:46;;;;;;;4.45;0.90;;;15.90;99.90;;;;;;10312350;28;20050;-65
2022/06/08 19:40:48;;;;;;;4.60;0.65;;;15.90;99.90;;;;;;10297114;28;20052;-66
2022/06/08 19:45:50;;;;;;;3.95;0.85;;;15.90;99.90;;;;;;10312275;28;20050;-66
2022/06/08 19:50:52;;;;;;;2.15;0.80;;;15.80;99.90;;;;;;10310334;28;20081;-64
2022/06/08 19:55:54;;;;;;;3.88;0.80;;;15.80;99.90;;;;;;10311092;28;20117;-64
2022/06/08 20:00:57;;;;;;;2.38;0.80;;;15.80;99.90;;;;;;10312484;28;20050;-64
2022/06/08 20:06:01;;;;;;;3.13;1.08;;;15.80;99.90;;;;;;10312346;28;20050;-64
2022/06/08 20:11:05;;;;;;;5.43;1.08;;;15.80;99.90;;;;;;10313976;28;20057;-63
2022/06/08 20:16:08;;;;;;;7.72;1.13;;;15.80;99.90;;;;;;10312782;28;20046;-64
2022/06/08 20:21:11;;;;;;;4.78;1.80;;;15.80;99.90;;;;;;10313518;28;20058;-59
2022/06/08 20:26:14;;;;;;;2.50;1.20;;;15.80;99.90;;;;;;10309460;28;20065;-59
2022/06/08 20:31:16;;;;;;;5.75;1.20;;;15.70;99.90;;;;;;10306658;28;20046;-59
2022/06/08 20:36:18;;;;;;;4.28;1.23;;;15.70;99.90;;;;;;10309661;28;20058;-58
2022/06/08 20:41:20;;;;;;;7.38;1.25;;;15.80;99.90;;;;;;10289070;28;20054;-59
2022/06/08 20:46:22;;;;;;;4.68;1.05;;;15.70;99.90;;;;;;10268934;28;20109;-60
2022/06/08 20:51:24;;;;;;;5.50;1.20;;;15.70;99.90;;;;;;10274457;28;20050;-59
2022/06/08 20:56:26;;;;;;;2.65;0.90;;;15.70;99.90;;;;;;10271378;28;20054;-58
2022/06/08 21:01:28;;;;;;;2.30;1.15;;;15.70;99.90;;;;;;10269299;28;20187;-59
2022/06/08 21:06:30;;;;;;;4.57;0.70;;;15.70;99.90;;;;;;10273566;28;20054;-58
2022/06/08 21:11:32;;;;;;;2.92;0.68;;;15.70;99.90;;;;;;10274936;28;20058;-59
2022/06/08 21:16:34;;;;;;;2.03;0.68;;;15.70;99.90;;;;;;10273036;28;20046;-59
2022/06/08 21:21:36;;;;;;;4.18;0.60;;;15.70;99.90;;;;;;10268686;28;20054;-59
2022/06/08 21:26:38;;;;;;;2.15;0.90;;;15.70;99.90;;;;;;10264755;28;20552;-58
2022/06/08 21:31:40;;;;;;;2.75;0.50;;;15.70;99.90;;;;;;10273625;28;20042;-58
2022/06/08 21:36:41;;;;;;;2.38;0.43;;;15.70;99.90;;;;;;10270407;28;20051;-58
2022/06/08 21:41:47;;;;;;;0.88;0.40;;;15.70;99.90;;;;;;10285479;28;20058;-57
2022/06/08 21:46:48;;;;;;;1.85;0.50;;;15.70;99.90;;;;;;10307167;28;20046;-58
2022/06/08 21:51:50;;;;;;;2.40;0.38;;;15.70;99.90;;;;;;10293542;28;20061;-58
2022/06/08 21:56:52;;;;;;;1.65;0.40;;;15.70;99.90;;;;;;10304521;28;20050;-59
2022/06/08 22:01:55;;;;;;;4.25;0.40;;;15.70;99.90;;;;;;10286145;28;20046;-59
2022/06/08 22:06:57;;;;;;;3.80;0.75;;;15.60;99.90;;;;;;10305607;28;20085;-58
2022/06/08 22:11:59;;;;;;;2.10;0.40;;;15.60;99.90;;;;;;10306416;28;20117;-58
2022/06/08 22:17:01;;;;;;;2.05;0.20;;;15.60;99.90;;;;;;10304255;28;20718;-58
2022/06/08 22:22:03;;;;;;;6.88;0.30;;;15.60;99.90;;;;;;10309293;28;20455;-58
2022/06/08 22:27:06;;;;;;;0.57;0.25;;;15.60;99.90;;;;;;10313326;28;20121;-57
2022/06/08 22:32:07;;;;;;;3.70;0.20;;;15.60;99.90;;;;;;10313326;28;20046;-57
2022/06/08 22:37:09;;;;;;;1.42;0.20;;;15.60;99.90;;;;;;10295363;28;20039;-57
2022/06/08 22:42:11;;;;;;;0.85;0.30;;;15.50;99.90;;;;;;10312965;28;20042;-58
2022/06/08 22:47:13;;;;;;;1.60;0.20;;;15.50;99.90;;;;;;10314305;28;20050;-58
2022/06/08 22:52:15;;;;;;;4.57;0.38;;;15.50;99.90;;;;;;10311723;28;20097;-57
2022/06/08 22:57:17;;;;;;;0.60;0.30;;;15.50;99.90;;;;;;10311114;28;20046;-58
2022/06/08 23:02:19;;;;;;;2.55;0.20;;;15.50;99.90;;;;;;10283969;28;20054;-58
2022/06/08 23:07:21;;;;;;;0.40;0.20;;;15.50;99.90;;;;;;10310369;28;20052;-58
2022/06/08 23:12:23;;;;;;;0.30;0.20;;;15.50;99.90;;;;;;10306756;28;20101;-58
2022/06/08 23:22:49;;;;;;;2.38;0.20;;;15.50;99.90;;;;;;10311634;28;20097;-58
2022/06/08 23:27:51;;;;;;;0.90;0.30;;;15.40;99.90;;;;;;10311900;28;20062;-59
2022/06/08 23:32:54;;;;;;;1.42;0.20;;;15.40;99.90;;;;;;10313061;28;20061;-58
2022/06/08 23:37:55;;;;;;;0.40;0.10;;;15.40;99.90;;;;;;10312386;28;20116;-57
2022/06/08 23:42:57;;;;;;;0.45;0.20;;;15.40;99.90;;;;;;10293063;28;20132;-59
2022/06/08 23:48:18;;;;;;;0.32;0.20;;;15.40;99.90;;;;;;10308912;28;20066;-57
2022/06/08 23:53:19;;;;;;;0.50;0.20;;;15.40;99.90;;;;;;10306936;28;20055;-58
2022/06/08 23:58:21;;;;;;;0.20;0.20;;;15.40;99.90;;;;;;10309991;28;20046;-58
